sensor_id;sensor_type;location;lat;lon;timestamp;pressure;altitude;pressure_sealevel;temperature;humidity
10720;BME280;5411;58.386;15.560;2023-07-13T00:01:48;99562.22;;;15.08;100.00
10720;BME280;5411;58.386;15.560;2023-07-13T00:04:19;99559.19;;;15.05;100.00
10720;BME280;5411;58.386;15.560;2023-07-13T00:06:49;99564.06;;;15.03;100.00
10720;BME280;5411;58.386;15.560;2023-07-13T00:09:18;99563.47;;;15.01;100.00
10720;BME280;5411;58.386;15.560;2023-07-13T00:11:53;99569.38;;;14.97;100.00
10720;BME280;5411;58.386;15.560;2023-07-13T00:14:26;99566.34;;;14.94;100.00
10720;BME280;5411;58.386;15.560;2023-07-13T00:16:56;99561.75;;;14.89;100.00
10720;BME280;5411;58.386;15.560;2023-07-13T00:19:27;99557.66;;;14.87;100.00
10720;BME280;5411;58.386;15.560;2023-07-13T00:21:58;99568.94;;;14.84;100.00
10720;BME280;5411;58.386;15.560;2023-07-13T00:24:26;99568.34;;;14.82;100.00
10720;BME280;5411;58.386;15.560;2023-07-13T00:26:58;99567.25;;;14.78;100.00
10720;BME280;5411;58.386;15.560;2023-07-13T00:29:26;99563.41;;;14.74;100.00
10720;BME280;5411;58.386;15.560;2023-07-13T00:31:55;99572.31;;;14.74;100.00
10720;BME280;5411;58.386;15.560;2023-07-13T00:34:24;99562.03;;;14.71;100.00
10720;BME280;5411;58.386;15.560;2023-07-13T00:36:53;99562.53;;;14.68;100.00
10720;BME280;5411;58.386;15.560;2023-07-13T00:39:22;99557.91;;;14.64;100.00
10720;BME280;5411;58.386;15.560;2023-07-13T00:41:51;99569.50;;;14.64;100.00
10720;BME280;5411;58.386;15.560;2023-07-13T00:44:21;99572.19;;;14.64;100.00
10720;BME280;5411;58.386;15.560;2023-07-13T00:46:50;99572.19;;;14.64;100.00
10720;BME280;5411;58.386;15.560;2023-07-13T00:49:22;99581.31;;;14.63;100.00
10720;BME280;5411;58.386;15.560;2023-07-13T00:51:56;99573.25;;;14.63;100.00
10720;BME280;5411;58.386;15.560;2023-07-13T00:54:29;99585.06;;;14.62;100.00
10720;BME280;5411;58.386;15.560;2023-07-13T00:57:02;99588.25;;;14.59;100.00
10720;BME280;5411;58.386;15.560;2023-07-13T00:59:34;99590.38;;;14.57;100.00
10720;BME280;5411;58.386;15.560;2023-07-13T01:02:06;99587.94;;;14.55;100.00
10720;BME280;5411;58.386;15.560;2023-07-13T01:04:35;99590.28;;;14.52;100.00
10720;BME280;5411;58.386;15.560;2023-07-13T01:07:03;99594.56;;;14.48;100.00
10720;BME280;5411;58.386;15.560;2023-07-13T01:09:32;99600.66;;;14.43;100.00
10720;BME280;5411;58.386;15.560;2023-07-13T01:12:03;99592.84;;;14.42;100.00
10720;BME280;5411;58.386;15.560;2023-07-13T01:14:34;99598.69;;;14.39;100.00
10720;BME280;5411;58.386;15.560;2023-07-13T01:17:03;99601.88;;;14.36;100.00
10720;BME280;5411;58.386;15.560;2023-07-13T01:19:36;99596.75;;;14.34;100.00
10720;BME280;5411;58.386;15.560;2023-07-13T01:22:11;99590.53;;;14.34;100.00
10720;BME280;5411;58.386;15.560;2023-07-13T01:24:42;99591.03;;;14.31;100.00
10720;BME280;5411;58.386;15.560;2023-07-13T01:27:15;99600.16;;;14.30;100.00
10720;BME280;5411;58.386;15.560;2023-07-13T01:29:45;99601.22;;;14.28;100.00
10720;BME280;5411;58.386;15.560;2023-07-13T01:32:16;99595.78;;;14.23;100.00
10720;BME280;5411;58.386;15.560;2023-07-13T01:34:51;99598.47;;;14.23;100.00
10720;BME280;5411;58.386;15.560;2023-07-13T01:37:24;99593.09;;;14.23;100.00
10720;BME280;5411;58.386;15.560;2023-07-13T01:40:02;99590.66;;;14.22;100.00
10720;BME280;5411;58.386;15.560;2023-07-13T01:42:34;99608.31;;;14.18;100.00
10720;BME280;5411;58.386;15.560;2023-07-13T01:45:03;99607.75;;;14.16;100.00
10720;BME280;5411;58.386;15.560;2023-07-13T01:47:32;99616.31;;;14.13;100.00
10720;BME280;5411;58.386;15.560;2023-07-13T01:50:01;99616.00;;;14.09;100.00
10720;BME280;5411;58.386;15.560;2023-07-13T01:52:31;99614.59;;;14.07;100.00
10720;BME280;5411;58.386;15.560;2023-07-13T01:55:01;99609.47;;;14.05;100.00
10720;BME280;5411;58.386;15.560;2023-07-13T01:57:30;99614.28;;;14.03;100.00
10720;BME280;5411;58.386;15.560;2023-07-13T01:59:59;99613.69;;;14.01;100.00
10720;BME280;5411;58.386;15.560;2023-07-13T02:02:28;99611.25;;;14.00;100.00
10720;BME280;5411;58.386;15.560;2023-07-13T02:04:56;99615.31;;;14.02;100.00
10720;BME280;5411;58.386;15.560;2023-07-13T02:07:25;99616.38;;;14.01;100.00
10720;BME280;5411;58.386;15.560;2023-07-13T02:09:55;99612.06;;;14.00;100.00
10720;BME280;5411;58.386;15.560;2023-07-13T02:12:26;99624.44;;;14.01;100.00
10720;BME280;5411;58.386;15.560;2023-07-13T02:14:57;99621.19;;;13.99;100.00
10720;BME280;5411;58.386;15.560;2023-07-13T02:17:26;99622.00;;;14.00;100.00
10720;BME280;5411;58.386;15.560;2023-07-13T02:19:55;99616.56;;;13.95;100.00
10720;BME280;5411;58.386;15.560;2023-07-13T02:22:23;99622.00;;;14.00;100.00
10720;BME280;5411;58.386;15.560;2023-07-13T02:24:52;99623.88;;;13.99;100.00
10720;BME280;5411;58.386;15.560;2023-07-13T02:27:22;99631.13;;;13.99;100.00
10720;BME280;5411;58.386;15.560;2023-07-13T02:29:51;99630.06;;;14.00;100.00
10720;BME280;5411;58.386;15.560;2023-07-13T02:32:20;99645.16;;;14.01;100.00
10720;BME280;5411;58.386;15.560;2023-07-13T02:34:49;99640.00;;;13.99;100.00
10720;BME280;5411;58.386;15.560;2023-07-13T02:37:17;99637.31;;;13.99;100.00
10720;BME280;5411;58.386;15.560;2023-07-13T02:39:46;99638.16;;;14.00;100.00
10720;BME280;5411;58.386;15.560;2023-07-13T02:42:16;99645.16;;;14.01;100.00
10720;BME280;5411;58.386;15.560;2023-07-13T02:44:46;99639.53;;;14.02;100.00
10720;BME280;5411;58.386;15.560;2023-07-13T02:47:16;99646.78;;;14.02;100.00
10720;BME280;5411;58.386;15.560;2023-07-13T02:49:45;99651.44;;;14.06;100.00
10720;BME280;5411;58.386;15.560;2023-07-13T02:52:13;99645.59;;;14.09;100.00
10720;BME280;5411;58.386;15.560;2023-07-13T02:54:42;99647.78;;;14.12;100.00
10720;BME280;5411;58.386;15.560;2023-07-13T02:57:11;99642.97;;;14.14;100.00
10720;BME280;5411;58.386;15.560;2023-07-13T02:59:40;99638.31;;;14.26;100.00
10720;BME280;5411;58.386;15.560;2023-07-13T03:02:12;99637.88;;;14.46;100.00
10720;BME280;5411;58.386;15.560;2023-07-13T03:04:41;99645.41;;;14.66;100.00
10720;BME280;5411;58.386;15.560;2023-07-13T03:07:10;99637.91;;;14.85;100.00
10720;BME280;5411;58.386;15.560;2023-07-13T03:09:39;99646.56;;;15.09;100.00
10720;BME280;5411;58.386;15.560;2023-07-13T03:12:09;99650.34;;;15.29;100.00
10720;BME280;5411;58.386;15.560;2023-07-13T03:14:38;99645.91;;;15.45;100.00
10720;BME280;5411;58.386;15.560;2023-07-13T03:17:07;99650.44;;;15.61;100.00
10720;BME280;5411;58.386;15.560;2023-07-13T03:19:37;99660.34;;;15.78;100.00
10720;BME280;5411;58.386;15.560;2023-07-13T03:22:05;99659.44;;;15.94;100.00
10720;BME280;5411;58.386;15.560;2023-07-13T03:24:35;99658.75;;;16.09;100.00
10720;BME280;5411;58.386;15.560;2023-07-13T03:27:06;99667.53;;;16.26;100.00
10720;BME280;5411;58.386;15.560;2023-07-13T03:29:35;99670.63;;;16.39;100.00
10720;BME280;5411;58.386;15.560;2023-07-13T03:32:06;99666.94;;;16.51;100.00
10720;BME280;5411;58.386;15.560;2023-07-13T03:34:37;99677.06;;;16.65;100.00
10720;BME280;5411;58.386;15.560;2023-07-13T03:37:05;99662.84;;;16.80;100.00
10720;BME280;5411;58.386;15.560;2023-07-13T03:39:34;99666.97;;;16.93;100.00
10720;BME280;5411;58.386;15.560;2023-07-13T03:42:04;99668.94;;;17.07;100.00
10720;BME280;5411;58.386;15.560;2023-07-13T03:44:33;99668.19;;;17.17;100.00
10720;BME280;5411;58.386;15.560;2023-07-13T03:47:01;99670.38;;;17.25;100.00
10720;BME280;5411;58.386;15.560;2023-07-13T03:49:30;99671.25;;;17.31;100.00
10720;BME280;5411;58.386;15.560;2023-07-13T03:52:00;99673.13;;;17.35;100.00
10720;BME280;5411;58.386;15.560;2023-07-13T03:54:29;99671.53;;;17.44;100.00
10720;BME280;5411;58.386;15.560;2023-07-13T03:56:57;99674.81;;;17.52;100.00
10720;BME280;5411;58.386;15.560;2023-07-13T03:59:26;99685.13;;;17.60;100.00
10720;BME280;5411;58.386;15.560;2023-07-13T04:01:54;99683.56;;;17.64;100.00
10720;BME280;5411;58.386;15.560;2023-07-13T04:04:23;99685.22;;;17.70;100.00
10720;BME280;5411;58.386;15.560;2023-07-13T04:06:52;99687.34;;;17.73;100.00
10720;BME280;5411;58.386;15.560;2023-07-13T04:09:25;99679.50;;;17.71;100.00
10720;BME280;5411;58.386;15.560;2023-07-13T04:11:54;99683.56;;;17.74;100.00
10720;BME280;5411;58.386;15.560;2023-07-13T04:14:25;99684.13;;;17.71;100.00
10720;BME280;5411;58.386;15.560;2023-07-13T04:16:56;99683.84;;;17.72;100.00
10720;BME280;5411;58.386;15.560;2023-07-13T04:19:28;99680.31;;;17.72;100.00
10720;BME280;5411;58.386;15.560;2023-07-13T04:21:57;99683.59;;;17.69;100.00
10720;BME280;5411;58.386;15.560;2023-07-13T04:24:28;99682.41;;;17.60;100.00
10720;BME280;5411;58.386;15.560;2023-07-13T04:26:56;99686.75;;;17.56;100.00
10720;BME280;5411;58.386;15.560;2023-07-13T04:29:26;99681.84;;;17.48;100.00
10720;BME280;5411;58.386;15.560;2023-07-13T04:31:55;99686.41;;;17.37;100.00
10720;BME280;5411;58.386;15.560;2023-07-13T04:34:24;99687.16;;;17.27;100.00
10720;BME280;5411;58.386;15.560;2023-07-13T04:36:52;99679.03;;;17.17;100.00
10720;BME280;5411;58.386;15.560;2023-07-13T04:39:21;99691.44;;;17.18;100.00
10720;BME280;5411;58.386;15.560;2023-07-13T04:41:51;99682.78;;;17.16;100.00
10720;BME280;5411;58.386;15.560;2023-07-13T04:44:20;99685.50;;;17.16;100.00
10720;BME280;5411;58.386;15.560;2023-07-13T04:46:51;99683.59;;;17.17;100.00
10720;BME280;5411;58.386;15.560;2023-07-13T04:49:20;99684.69;;;17.21;100.00
10720;BME280;5411;58.386;15.560;2023-07-13T04:51:48;99687.94;;;17.23;100.00
10720;BME280;5411;58.386;15.560;2023-07-13T04:54:17;99687.97;;;17.28;100.00
10720;BME280;5411;58.386;15.560;2023-07-13T04:56:48;99684.22;;;17.29;100.00
10720;BME280;5411;58.386;15.560;2023-07-13T04:59:19;99680.94;;;17.32;100.00
10720;BME280;5411;58.386;15.560;2023-07-13T05:01:47;99678.03;;;17.38;100.00
10720;BME280;5411;58.386;15.560;2023-07-13T05:04:16;99680.75;;;17.43;100.00
10720;BME280;5411;58.386;15.560;2023-07-13T05:06:44;99692.66;;;17.48;100.00
10720;BME280;5411;58.386;15.560;2023-07-13T05:09:13;99686.97;;;17.49;100.00
10720;BME280;5411;58.386;15.560;2023-07-13T05:11:44;99688.09;;;17.53;100.00
10720;BME280;5411;58.386;15.560;2023-07-13T05:14:12;99689.47;;;17.56;100.00
10720;BME280;5411;58.386;15.560;2023-07-13T05:16:44;99698.38;;;17.61;100.00
10720;BME280;5411;58.386;15.560;2023-07-13T05:19:13;99698.44;;;17.66;100.00
10720;BME280;5411;58.386;15.560;2023-07-13T05:21:42;99700.91;;;17.68;100.00
10720;BME280;5411;58.386;15.560;2023-07-13T05:24:10;99702.53;;;17.74;100.00
10720;BME280;5411;58.386;15.560;2023-07-13T05:26:51;99701.75;;;17.84;100.00
10720;BME280;5411;58.386;15.560;2023-07-13T05:29:20;99699.03;;;17.89;100.00
10720;BME280;5411;58.386;15.560;2023-07-13T05:31:52;99712.34;;;17.95;100.00
10720;BME280;5411;58.386;15.560;2023-07-13T05:34:20;99706.91;;;18.00;100.00
10720;BME280;5411;58.386;15.560;2023-07-13T05:36:49;99707.72;;;18.01;100.00
10720;BME280;5411;58.386;15.560;2023-07-13T05:39:18;99705.59;;;18.08;100.00
10720;BME280;5411;58.386;15.560;2023-07-13T05:41:49;99704.25;;;18.15;100.00
10720;BME280;5411;58.386;15.560;2023-07-13T05:44:19;99713.19;;;18.21;100.00
10720;BME280;5411;58.386;15.560;2023-07-13T05:46:47;99715.38;;;18.24;100.00
10720;BME280;5411;58.386;15.560;2023-07-13T05:49:18;99718.34;;;18.23;100.00
10720;BME280;5411;58.386;15.560;2023-07-13T05:51:48;99711.56;;;18.25;100.00
10720;BME280;5411;58.386;15.560;2023-07-13T05:54:17;99722.69;;;18.34;100.00
10720;BME280;5411;58.386;15.560;2023-07-13T05:56:48;99724.31;;;18.45;100.00
10720;BME280;5411;58.386;15.560;2023-07-13T05:59:17;99714.59;;;18.49;100.00
10720;BME280;5411;58.386;15.560;2023-07-13T06:01:49;99726.81;;;18.62;99.04
10720;BME280;5411;58.386;15.560;2023-07-13T06:04:21;99732.50;;;18.60;97.55
10720;BME280;5411;58.386;15.560;2023-07-13T06:06:49;99730.34;;;18.62;97.44
10720;BME280;5411;58.386;15.560;2023-07-13T06:09:18;99736.53;;;18.68;97.96
10720;BME280;5411;58.386;15.560;2023-07-13T06:11:48;99734.09;;;18.66;97.55
10720;BME280;5411;58.386;15.560;2023-07-13T06:14:17;99735.47;;;18.59;98.39
10720;BME280;5411;58.386;15.560;2023-07-13T06:16:51;99734.63;;;18.53;98.07
10720;BME280;5411;58.386;15.560;2023-07-13T06:19:22;99728.94;;;18.49;96.90
10720;BME280;5411;58.386;15.560;2023-07-13T06:21:51;99743.00;;;18.51;98.36
10720;BME280;5411;58.386;15.560;2023-07-13T06:24:23;99744.66;;;18.58;100.00
10720;BME280;5411;58.386;15.560;2023-07-13T06:26:52;99733.28;;;18.66;99.49
10720;BME280;5411;58.386;15.560;2023-07-13T06:29:23;99742.78;;;18.83;99.30
10720;BME280;5411;58.386;15.560;2023-07-13T06:31:51;99740.88;;;18.94;97.96
10720;BME280;5411;58.386;15.560;2023-07-13T06:34:24;99743.56;;;19.09;97.58
10720;BME280;5411;58.386;15.560;2023-07-13T06:36:52;99746.25;;;19.25;96.82
10720;BME280;5411;58.386;15.560;2023-07-13T06:39:26;99736.44;;;19.39;94.51
10720;BME280;5411;58.386;15.560;2023-07-13T06:41:54;99733.16;;;19.57;94.01
10720;BME280;5411;58.386;15.560;2023-07-13T06:44:23;99731.50;;;19.61;94.52
10720;BME280;5411;58.386;15.560;2023-07-13T06:46:51;99728.53;;;19.57;93.51
10720;BME280;5411;58.386;15.560;2023-07-13T06:49:20;99733.13;;;19.67;92.84
10720;BME280;5411;58.386;15.560;2023-07-13T06:51:50;99738.81;;;19.66;92.62
10720;BME280;5411;58.386;15.560;2023-07-13T06:54:19;99731.50;;;19.66;90.50
10720;BME280;5411;58.386;15.560;2023-07-13T06:56:52;99729.88;;;19.65;87.48
10720;BME280;5411;58.386;15.560;2023-07-13T06:59:20;99727.41;;;19.64;87.68
10720;BME280;5411;58.386;15.560;2023-07-13T07:01:49;99737.75;;;19.62;89.44
10720;BME280;5411;58.386;15.560;2023-07-13T07:04:17;99733.34;;;19.71;88.77
10720;BME280;5411;58.386;15.560;2023-07-13T07:06:46;99737.41;;;19.83;87.61
10720;BME280;5411;58.386;15.560;2023-07-13T07:09:18;99724.78;;;19.98;88.06
10720;BME280;5411;58.386;15.560;2023-07-13T07:11:47;99728.25;;;20.13;87.01
10720;BME280;5411;58.386;15.560;2023-07-13T07:14:29;99737.72;;;20.21;85.20
10720;BME280;5411;58.386;15.560;2023-07-13T07:17:01;99727.84;;;20.35;83.98
10720;BME280;5411;58.386;15.560;2023-07-13T07:19:30;99738.66;;;20.45;82.80
10720;BME280;5411;58.386;15.560;2023-07-13T07:21:58;99733.03;;;20.37;80.95
10720;BME280;5411;58.386;15.560;2023-07-13T07:24:28;99742.72;;;20.48;82.01
10720;BME280;5411;58.386;15.560;2023-07-13T07:26:57;99736.13;;;20.59;83.71
10720;BME280;5411;58.386;15.560;2023-07-13T07:29:28;99739.59;;;20.64;81.18
10720;BME280;5411;58.386;15.560;2023-07-13T07:32:00;99749.97;;;20.62;79.18
10720;BME280;5411;58.386;15.560;2023-07-13T07:34:44;99745.38;;;20.58;79.08
10720;BME280;5411;58.386;15.560;2023-07-13T07:37:13;99739.56;;;20.70;78.93
10720;BME280;5411;58.386;15.560;2023-07-13T07:39:46;99736.84;;;20.70;79.73
10720;BME280;5411;58.386;15.560;2023-07-13T07:42:37;99737.78;;;20.89;79.25
10720;BME280;5411;58.386;15.560;2023-07-13T07:45:07;99735.94;;;21.08;79.41
10720;BME280;5411;58.386;15.560;2023-07-13T07:47:38;99742.34;;;21.22;76.95
10720;BME280;5411;58.386;15.560;2023-07-13T07:50:09;99740.28;;;21.38;75.35
10720;BME280;5411;58.386;15.560;2023-07-13T07:52:37;99739.31;;;21.53;76.91
10720;BME280;5411;58.386;15.560;2023-07-13T07:55:08;99744.25;;;21.46;73.88
10720;BME280;5411;58.386;15.560;2023-07-13T08:00:11;99752.22;;;21.66;72.63
10720;BME280;5411;58.386;15.560;2023-07-13T08:02:43;99753.94;;;21.81;69.72
10720;BME280;5411;58.386;15.560;2023-07-13T08:05:20;99752.56;;;21.83;70.99
10720;BME280;5411;58.386;15.560;2023-07-13T08:08:04;99759.91;;;21.83;70.42
10720;BME280;5411;58.386;15.560;2023-07-13T08:10:43;99758.63;;;21.75;71.79
10720;BME280;5411;58.386;15.560;2023-07-13T08:13:13;99747.28;;;21.68;69.18
10720;BME280;5411;58.386;15.560;2023-07-13T08:15:42;99749.59;;;21.80;69.77
10720;BME280;5411;58.386;15.560;2023-07-13T08:18:13;99755.28;;;21.83;68.36
10720;BME280;5411;58.386;15.560;2023-07-13T08:20:42;99747.06;;;21.64;65.82
10720;BME280;5411;58.386;15.560;2023-07-13T08:23:12;99758.25;;;21.39;65.88
10720;BME280;5411;58.386;15.560;2023-07-13T08:25:42;99763.69;;;21.39;66.71
10720;BME280;5411;58.386;15.560;2023-07-13T08:28:16;99758.88;;;21.55;66.49
10720;BME280;5411;58.386;15.560;2023-07-13T08:30:46;99775.06;;;21.70;65.93
10720;BME280;5411;58.386;15.560;2023-07-13T08:33:16;99773.34;;;21.74;66.77
10720;BME280;5411;58.386;15.560;2023-07-13T08:35:45;99771.38;;;21.80;65.28
10720;BME280;5411;58.386;15.560;2023-07-13T08:38:15;99774.97;;;21.99;64.74
10720;BME280;5411;58.386;15.560;2023-07-13T08:40:51;99770.66;;;22.17;65.92
10720;BME280;5411;58.386;15.560;2023-07-13T08:43:30;99762.31;;;22.27;63.92
10720;BME280;5411;58.386;15.560;2023-07-13T08:46:08;99770.78;;;22.25;58.81
10720;BME280;5411;58.386;15.560;2023-07-13T08:48:44;99781.56;;;22.35;59.35
10720;BME280;5411;58.386;15.560;2023-07-13T08:51:26;99776.69;;;22.32;60.47
10720;BME280;5411;58.386;15.560;2023-07-13T08:54:00;99776.34;;;22.20;61.61
10720;BME280;5411;58.386;15.560;2023-07-13T08:56:32;99780.66;;;22.02;62.42
10720;BME280;5411;58.386;15.560;2023-07-13T08:59:10;99783.78;;;21.91;63.41
10720;BME280;5411;58.386;15.560;2023-07-13T09:01:52;99781.34;;;21.89;61.68
10720;BME280;5411;58.386;15.560;2023-07-13T09:04:26;99775.25;;;21.74;64.04
10720;BME280;5411;58.386;15.560;2023-07-13T09:07:05;99781.75;;;21.78;64.39
10720;BME280;5411;58.386;15.560;2023-07-13T09:09:45;99778.91;;;21.88;62.06
10720;BME280;5411;58.386;15.560;2023-07-13T09:12:25;99782.09;;;21.95;62.12
10720;BME280;5411;58.386;15.560;2023-07-13T09:14:57;99786.34;;;22.25;61.90
10720;BME280;5411;58.386;15.560;2023-07-13T09:17:30;99780.38;;;22.42;61.44
10720;BME280;5411;58.386;15.560;2023-07-13T09:20:09;99787.44;;;22.61;63.20
10720;BME280;5411;58.386;15.560;2023-07-13T09:22:39;99784.25;;;22.73;59.38
10720;BME280;5411;58.386;15.560;2023-07-13T09:25:22;99785.88;;;22.74;58.36
10720;BME280;5411;58.386;15.560;2023-07-13T09:27:58;99784.75;;;22.94;58.81
10720;BME280;5411;58.386;15.560;2023-07-13T09:30:38;99784.44;;;23.14;58.38
10720;BME280;5411;58.386;15.560;2023-07-13T09:33:13;99787.56;;;23.21;58.12
10720;BME280;5411;58.386;15.560;2023-07-13T09:35:44;99785.28;;;23.42;56.34
10720;BME280;5411;58.386;15.560;2023-07-13T09:38:14;99788.66;;;23.53;57.20
10720;BME280;5411;58.386;15.560;2023-07-13T09:41:03;99788.66;;;23.53;56.18
10720;BME280;5411;58.386;15.560;2023-07-13T09:43:38;99784.09;;;23.62;56.23
10720;BME280;5411;58.386;15.560;2023-07-13T09:46:20;99780.03;;;23.73;55.66
10720;BME280;5411;58.386;15.560;2023-07-13T09:48:49;99785.31;;;23.69;53.92
10720;BME280;5411;58.386;15.560;2023-07-13T09:51:18;99781.97;;;23.59;53.07
10720;BME280;5411;58.386;15.560;2023-07-13T09:53:46;99780.75;;;23.65;56.88
10720;BME280;5411;58.386;15.560;2023-07-13T09:56:22;99778.75;;;23.57;55.87
10720;BME280;5411;58.386;15.560;2023-07-13T09:58:53;99774.06;;;23.71;55.27
10720;BME280;5411;58.386;15.560;2023-07-13T10:01:35;99769.31;;;23.90;53.39
10720;BME280;5411;58.386;15.560;2023-07-13T10:04:11;99772.94;;;23.86;55.19
10720;BME280;5411;58.386;15.560;2023-07-13T10:06:40;99760.22;;;23.81;56.95
10720;BME280;5411;58.386;15.560;2023-07-13T10:09:15;99767.69;;;23.89;57.98
10720;BME280;5411;58.386;15.560;2023-07-13T10:11:45;99780.25;;;23.90;56.50
10720;BME280;5411;58.386;15.560;2023-07-13T10:14:18;99769.00;;;23.92;55.63
10720;BME280;5411;58.386;15.560;2023-07-13T10:16:52;99762.53;;;23.88;54.94
10720;BME280;5411;58.386;15.560;2023-07-13T10:19:30;99765.88;;;23.85;54.80
10720;BME280;5411;58.386;15.560;2023-07-13T10:22:10;99768.00;;;23.88;55.06
10720;BME280;5411;58.386;15.560;2023-07-13T10:24:41;99772.56;;;23.78;54.09
10720;BME280;5411;58.386;15.560;2023-07-13T10:27:16;99769.41;;;23.58;53.75
10720;BME280;5411;58.386;15.560;2023-07-13T10:29:52;99773.25;;;23.43;55.75
10720;BME280;5411;58.386;15.560;2023-07-13T10:32:24;99768.47;;;23.49;56.87
10720;BME280;5411;58.386;15.560;2023-07-13T10:34:53;99773.47;;;23.60;55.93
10720;BME280;5411;58.386;15.560;2023-07-13T10:37:27;99775.91;;;23.62;55.74
10720;BME280;5411;58.386;15.560;2023-07-13T10:39:57;99769.13;;;23.73;54.62
10720;BME280;5411;58.386;15.560;2023-07-13T10:42:30;99771.84;;;23.73;54.16
10720;BME280;5411;58.386;15.560;2023-07-13T10:45:03;99774.56;;;23.73;55.04
10720;BME280;5411;58.386;15.560;2023-07-13T10:47:40;99784.22;;;23.57;55.13
10720;BME280;5411;58.386;15.560;2023-07-13T10:50:17;99783.53;;;23.46;58.62
10720;BME280;5411;58.386;15.560;2023-07-13T10:52:48;99775.63;;;23.31;59.24
10720;BME280;5411;58.386;15.560;2023-07-13T10:55:37;99767.94;;;23.19;59.87
10720;BME280;5411;58.386;15.560;2023-07-13T10:58:18;99770.03;;;23.08;61.31
10720;BME280;5411;58.386;15.560;2023-07-13T11:01:07;99776.13;;;23.19;62.41
10720;BME280;5411;58.386;15.560;2023-07-13T11:03:49;99772.59;;;23.19;64.75
10720;BME280;5411;58.386;15.560;2023-07-13T11:06:32;99758.94;;;23.19;60.55
10720;BME280;5411;58.386;15.560;2023-07-13T11:09:18;99765.31;;;23.14;59.74
10720;BME280;5411;58.386;15.560;2023-07-13T11:11:48;99775.00;;;23.20;59.36
10720;BME280;5411;58.386;15.560;2023-07-13T11:14:29;99764.72;;;23.44;60.08
10720;BME280;5411;58.386;15.560;2023-07-13T11:17:32;99764.28;;;23.70;57.96
10720;BME280;5411;58.386;15.560;2023-07-13T11:20:20;99753.94;;;23.94;56.08
10720;BME280;5411;58.386;15.560;2023-07-13T11:22:52;99760.06;;;24.13;57.04
10720;BME280;5411;58.386;15.560;2023-07-13T11:25:28;99755.69;;;24.26;56.66
10720;BME280;5411;58.386;15.560;2023-07-13T11:28:07;99744.41;;;24.41;54.29
10720;BME280;5411;58.386;15.560;2023-07-13T11:30:44;99761.16;;;24.26;51.79
10720;BME280;5411;58.386;15.560;2023-07-13T11:33:18;99752.66;;;24.28;51.03
10720;BME280;5411;58.386;15.560;2023-07-13T11:35:58;99756.41;;;24.32;52.33
10720;BME280;5411;58.386;15.560;2023-07-13T11:38:34;99762.13;;;24.44;53.38
10720;BME280;5411;58.386;15.560;2023-07-13T11:41:06;99767.50;;;24.49;52.53
10720;BME280;5411;58.386;15.560;2023-07-13T11:43:35;99760.09;;;24.49;52.12
10720;BME280;5411;58.386;15.560;2023-07-13T11:46:15;99756.22;;;24.50;51.23
10720;BME280;5411;58.386;15.560;2023-07-13T11:48:46;99762.88;;;24.36;51.07
10720;BME280;5411;58.386;15.560;2023-07-13T11:51:20;99763.59;;;24.14;51.72
10720;BME280;5411;58.386;15.560;2023-07-13T11:53:51;99758.38;;;23.90;52.01
10720;BME280;5411;58.386;15.560;2023-07-13T11:56:24;99762.94;;;23.81;51.35
10720;BME280;5411;58.386;15.560;2023-07-13T11:58:56;99760.41;;;23.71;53.36
10720;BME280;5411;58.386;15.560;2023-07-13T12:01:29;99757.88;;;23.74;53.19
10720;BME280;5411;58.386;15.560;2023-07-13T12:04:21;99750.00;;;23.73;53.80
10720;BME280;5411;58.386;15.560;2023-07-13T12:06:56;99747.88;;;23.70;54.75
10720;BME280;5411;58.386;15.560;2023-07-13T12:09:27;99749.09;;;23.64;54.35
10720;BME280;5411;58.386;15.560;2023-07-13T12:11:58;99754.16;;;23.57;55.79
10720;BME280;5411;58.386;15.560;2023-07-13T12:14:33;99745.81;;;23.48;57.58
10720;BME280;5411;58.386;15.560;2023-07-13T12:17:09;99753.44;;;23.51;56.49
10720;BME280;5411;58.386;15.560;2023-07-13T12:19:41;99745.97;;;23.57;54.58
10720;BME280;5411;58.386;15.560;2023-07-13T12:22:12;99746.31;;;23.50;55.90
10720;BME280;5411;58.386;15.560;2023-07-13T12:24:41;99743.09;;;23.34;56.94
10720;BME280;5411;58.386;15.560;2023-07-13T12:27:20;99745.41;;;23.27;57.84
10720;BME280;5411;58.386;15.560;2023-07-13T12:29:51;99738.81;;;23.15;58.77
10720;BME280;5411;58.386;15.560;2023-07-13T12:32:24;99729.31;;;23.12;59.53
10720;BME280;5411;58.386;15.560;2023-07-13T12:35:14;99737.00;;;23.10;58.43
10720;BME280;5411;58.386;15.560;2023-07-13T12:37:50;99742.19;;;22.93;59.44
10720;BME280;5411;58.386;15.560;2023-07-13T12:40:21;99738.19;;;22.71;60.13
10720;BME280;5411;58.386;15.560;2023-07-13T12:42:54;99749.13;;;22.53;60.13
10720;BME280;5411;58.386;15.560;2023-07-13T12:45:24;99744.13;;;22.41;60.36
10720;BME280;5411;58.386;15.560;2023-07-13T12:47:57;99744.50;;;22.34;61.46
10720;BME280;5411;58.386;15.560;2023-07-13T12:50:34;99749.22;;;22.29;62.21
10720;BME280;5411;58.386;15.560;2023-07-13T12:53:05;99758.59;;;22.23;63.12
10720;BME280;5411;58.386;15.560;2023-07-13T12:55:41;99765.25;;;22.12;64.05
10720;BME280;5411;58.386;15.560;2023-07-13T12:58:25;99765.94;;;21.98;68.83
10720;BME280;5411;58.386;15.560;2023-07-13T13:00:55;99773.34;;;21.74;70.51
10720;BME280;5411;58.386;15.560;2023-07-13T13:03:30;99780.94;;;21.29;74.53
10720;BME280;5411;58.386;15.560;2023-07-13T13:06:03;99776.88;;;20.93;79.58
10720;BME280;5411;58.386;15.560;2023-07-13T13:08:34;99784.06;;;20.79;80.54
10720;BME280;5411;58.386;15.560;2023-07-13T13:11:03;99788.09;;;20.86;83.70
10720;BME280;5411;58.386;15.560;2023-07-13T13:13:31;99787.09;;;21.06;83.93
10720;BME280;5411;58.386;15.560;2023-07-13T13:16:02;99783.69;;;21.24;82.88
10720;BME280;5411;58.386;15.560;2023-07-13T13:18:33;99788.03;;;21.54;82.06
10720;BME280;5411;58.386;15.560;2023-07-13T13:21:04;99788.53;;;21.80;83.19
10720;BME280;5411;58.386;15.560;2023-07-13T13:23:32;99782.09;;;21.95;80.00